Terminal Aerodrome Forecast
Issued by NWS San Angelo, TX

Home | Current Version | Previous Version | Text Only | Print | Product List | Glossary On
Versions: 1 2 3 4 5 6 7 8 9 10 11 12 13 14 15 16 17 18 19 20 21 22 23
115
FTUS44 KSJT 031140
TAFABI
TAF
KABI 031140Z 0312/0412 05009KT 5SM -RA BR OVC008
      TEMPO 0312/0314 2SM RA BR OVC012
     FM031700 04009KT 4SM -DZ BR OVC009
     FM040300 02007KT 3SM -RA BR OVC006
     FM040700 01006KT 2SM -DZ BR OVC004=

USA.gov is the U.S. government's official web portal to all federal, state and local government web resources and services.